sensor_id;sensor_type;location;lat;lon;timestamp;P1;durP1;ratioP1;P2;durP2;ratioP2
39308;SDS011;26019;47.510;19.122;2023-09-08T00:04:11;9.87;;;5.33;;
39308;SDS011;26019;47.510;19.122;2023-09-08T00:14:14;9.27;;;5.25;;
39308;SDS011;26019;47.510;19.122;2023-09-08T00:24:16;8.90;;;5.43;;
39308;SDS011;26019;47.510;19.122;2023-09-08T00:34:19;8.77;;;5.30;;
39308;SDS011;26019;47.510;19.122;2023-09-08T00:44:21;12.38;;;6.75;;
39308;SDS011;26019;47.510;19.122;2023-09-08T00:54:23;12.93;;;6.70;;
39308;SDS011;26019;47.510;19.122;2023-09-08T01:04:24;8.97;;;5.13;;
39308;SDS011;26019;47.510;19.122;2023-09-08T01:14:26;8.20;;;5.67;;
39308;SDS011;26019;47.510;19.122;2023-09-08T01:34:58;8.25;;;5.30;;
39308;SDS011;26019;47.510;19.122;2023-09-08T01:45:01;8.70;;;5.93;;
39308;SDS011;26019;47.510;19.122;2023-09-08T01:55:02;10.77;;;6.13;;
39308;SDS011;26019;47.510;19.122;2023-09-08T02:05:05;9.73;;;5.93;;
39308;SDS011;26019;47.510;19.122;2023-09-08T02:15:07;9.60;;;6.43;;
39308;SDS011;26019;47.510;19.122;2023-09-08T02:25:10;10.52;;;6.00;;
39308;SDS011;26019;47.510;19.122;2023-09-08T02:35:12;9.30;;;6.10;;
39308;SDS011;26019;47.510;19.122;2023-09-08T02:45:14;9.90;;;6.57;;
39308;SDS011;26019;47.510;19.122;2023-09-08T02:55:16;10.10;;;6.97;;
39308;SDS011;26019;47.510;19.122;2023-09-08T03:05:18;10.13;;;6.97;;
39308;SDS011;26019;47.510;19.122;2023-09-08T03:15:20;10.37;;;7.13;;
39308;SDS011;26019;47.510;19.122;2023-09-08T03:35:23;11.43;;;6.45;;
39308;SDS011;26019;47.510;19.122;2023-09-08T03:45:25;12.20;;;6.93;;
39308;SDS011;26019;47.510;19.122;2023-09-08T03:55:26;9.40;;;6.47;;
39308;SDS011;26019;47.510;19.122;2023-09-08T04:05:28;12.57;;;6.60;;
39308;SDS011;26019;47.510;19.122;2023-09-08T04:15:30;12.30;;;6.93;;
39308;SDS011;26019;47.510;19.122;2023-09-08T04:25:32;11.73;;;6.73;;
39308;SDS011;26019;47.510;19.122;2023-09-08T04:35:35;13.60;;;6.87;;
39308;SDS011;26019;47.510;19.122;2023-09-08T04:45:37;11.55;;;7.28;;
39308;SDS011;26019;47.510;19.122;2023-09-08T04:55:39;16.10;;;7.15;;
39308;SDS011;26019;47.510;19.122;2023-09-08T05:05:41;17.88;;;6.82;;
39308;SDS011;26019;47.510;19.122;2023-09-08T05:15:43;17.03;;;7.87;;
39308;SDS011;26019;47.510;19.122;2023-09-08T05:25:45;19.05;;;6.63;;
39308;SDS011;26019;47.510;19.122;2023-09-08T05:35:47;11.53;;;7.00;;
39308;SDS011;26019;47.510;19.122;2023-09-08T05:45:49;24.50;;;6.83;;
39308;SDS011;26019;47.510;19.122;2023-09-08T05:55:50;10.83;;;6.40;;
39308;SDS011;26019;47.510;19.122;2023-09-08T06:05:57;16.23;;;7.05;;
39308;SDS011;26019;47.510;19.122;2023-09-08T06:15:59;11.05;;;6.20;;
39308;SDS011;26019;47.510;19.122;2023-09-08T06:26:00;12.75;;;6.75;;
39308;SDS011;26019;47.510;19.122;2023-09-08T06:36:03;11.82;;;6.60;;
39308;SDS011;26019;47.510;19.122;2023-09-08T06:46:05;14.07;;;7.18;;
39308;SDS011;26019;47.510;19.122;2023-09-08T06:56:07;14.25;;;6.90;;
39308;SDS011;26019;47.510;19.122;2023-09-08T07:06:10;9.38;;;5.57;;
39308;SDS011;26019;47.510;19.122;2023-09-08T07:16:12;8.43;;;6.35;;
39308;SDS011;26019;47.510;19.122;2023-09-08T07:26:13;12.75;;;6.38;;
39308;SDS011;26019;47.510;19.122;2023-09-08T07:36:15;13.63;;;6.07;;
39308;SDS011;26019;47.510;19.122;2023-09-08T07:56:24;13.40;;;5.63;;
39308;SDS011;26019;47.510;19.122;2023-09-08T08:06:27;16.40;;;5.90;;
39308;SDS011;26019;47.510;19.122;2023-09-08T08:27:08;10.75;;;5.85;;
39308;SDS011;26019;47.510;19.122;2023-09-08T08:37:10;8.60;;;5.38;;
39308;SDS011;26019;47.510;19.122;2023-09-08T08:47:14;9.45;;;4.90;;
39308;SDS011;26019;47.510;19.122;2023-09-08T08:57:17;11.77;;;5.53;;
39308;SDS011;26019;47.510;19.122;2023-09-08T09:07:20;9.02;;;5.40;;
39308;SDS011;26019;47.510;19.122;2023-09-08T09:17:25;10.38;;;4.72;;
39308;SDS011;26019;47.510;19.122;2023-09-08T09:27:30;6.63;;;4.68;;
39308;SDS011;26019;47.510;19.122;2023-09-08T09:37:32;9.20;;;3.92;;
39308;SDS011;26019;47.510;19.122;2023-09-08T09:47:34;7.70;;;4.13;;
39308;SDS011;26019;47.510;19.122;2023-09-08T09:57:36;5.75;;;4.28;;
39308;SDS011;26019;47.510;19.122;2023-09-08T10:07:39;6.97;;;4.95;;
39308;SDS011;26019;47.510;19.122;2023-09-08T10:17:44;4.75;;;3.47;;
39308;SDS011;26019;47.510;19.122;2023-09-08T10:27:53;8.68;;;3.40;;
39308;SDS011;26019;47.510;19.122;2023-09-08T10:48:22;7.30;;;3.80;;
39308;SDS011;26019;47.510;19.122;2023-09-08T10:58:30;5.45;;;3.60;;
39308;SDS011;26019;47.510;19.122;2023-09-08T11:08:40;3.72;;;3.30;;
39308;SDS011;26019;47.510;19.122;2023-09-08T11:18:45;5.35;;;4.07;;
39308;SDS011;26019;47.510;19.122;2023-09-08T11:28:47;6.70;;;3.40;;
39308;SDS011;26019;47.510;19.122;2023-09-08T11:38:50;6.55;;;3.40;;
39308;SDS011;26019;47.510;19.122;2023-09-08T11:48:53;4.97;;;3.40;;
39308;SDS011;26019;47.510;19.122;2023-09-08T12:09:03;5.15;;;3.38;;
39308;SDS011;26019;47.510;19.122;2023-09-08T12:19:05;6.78;;;3.78;;
39308;SDS011;26019;47.510;19.122;2023-09-08T12:29:12;4.35;;;3.53;;
39308;SDS011;26019;47.510;19.122;2023-09-08T12:39:15;5.72;;;3.05;;
39308;SDS011;26019;47.510;19.122;2023-09-08T12:49:20;3.55;;;2.90;;
39308;SDS011;26019;47.510;19.122;2023-09-08T12:59:22;7.47;;;3.30;;
39308;SDS011;26019;47.510;19.122;2023-09-08T13:09:24;4.30;;;3.20;;
39308;SDS011;26019;47.510;19.122;2023-09-08T13:19:26;2.90;;;2.70;;
39308;SDS011;26019;47.510;19.122;2023-09-08T13:29:28;5.68;;;3.72;;
39308;SDS011;26019;47.510;19.122;2023-09-08T13:39:32;7.43;;;6.65;;
39308;SDS011;26019;47.510;19.122;2023-09-08T13:49:35;5.05;;;3.00;;
39308;SDS011;26019;47.510;19.122;2023-09-08T13:59:38;4.65;;;3.60;;
39308;SDS011;26019;47.510;19.122;2023-09-08T14:09:43;6.10;;;3.10;;
39308;SDS011;26019;47.510;19.122;2023-09-08T14:19:49;7.50;;;3.67;;
39308;SDS011;26019;47.510;19.122;2023-09-08T14:29:51;5.45;;;3.42;;
39308;SDS011;26019;47.510;19.122;2023-09-08T14:39:53;5.77;;;3.87;;
39308;SDS011;26019;47.510;19.122;2023-09-08T14:49:56;6.33;;;3.63;;
39308;SDS011;26019;47.510;19.122;2023-09-08T14:59:58;5.45;;;3.47;;
39308;SDS011;26019;47.510;19.122;2023-09-08T15:10:00;3.92;;;3.53;;
39308;SDS011;26019;47.510;19.122;2023-09-08T15:20:02;7.90;;;3.55;;
39308;SDS011;26019;47.510;19.122;2023-09-08T15:30:05;5.30;;;3.13;;
39308;SDS011;26019;47.510;19.122;2023-09-08T15:40:08;7.65;;;3.38;;
39308;SDS011;26019;47.510;19.122;2023-09-08T15:50:15;6.65;;;3.67;;
39308;SDS011;26019;47.510;19.122;2023-09-08T16:00:18;8.38;;;3.83;;
39308;SDS011;26019;47.510;19.122;2023-09-08T16:10:20;9.15;;;4.00;;
39308;SDS011;26019;47.510;19.122;2023-09-08T16:20:22;7.10;;;4.07;;
39308;SDS011;26019;47.510;19.122;2023-09-08T16:30:26;8.77;;;5.22;;
39308;SDS011;26019;47.510;19.122;2023-09-08T16:40:29;9.27;;;4.88;;
39308;SDS011;26019;47.510;19.122;2023-09-08T16:50:31;24.58;;;13.63;;
39308;SDS011;26019;47.510;19.122;2023-09-08T17:00:34;7.45;;;5.20;;
39308;SDS011;26019;47.510;19.122;2023-09-08T17:10:36;9.25;;;4.63;;
39308;SDS011;26019;47.510;19.122;2023-09-08T17:20:38;9.10;;;4.95;;
39308;SDS011;26019;47.510;19.122;2023-09-08T17:30:41;8.68;;;5.10;;
39308;SDS011;26019;47.510;19.122;2023-09-08T17:40:44;12.20;;;6.22;;
39308;SDS011;26019;47.510;19.122;2023-09-08T17:50:46;10.25;;;5.55;;
39308;SDS011;26019;47.510;19.122;2023-09-08T18:00:48;16.42;;;6.25;;
39308;SDS011;26019;47.510;19.122;2023-09-08T18:10:57;10.63;;;5.38;;
39308;SDS011;26019;47.510;19.122;2023-09-08T18:21:01;9.32;;;5.70;;
39308;SDS011;26019;47.510;19.122;2023-09-08T18:31:03;10.57;;;5.38;;
39308;SDS011;26019;47.510;19.122;2023-09-08T18:41:06;16.70;;;7.00;;
39308;SDS011;26019;47.510;19.122;2023-09-08T18:51:09;16.15;;;6.57;;
39308;SDS011;26019;47.510;19.122;2023-09-08T19:01:12;16.67;;;7.68;;
39308;SDS011;26019;47.510;19.122;2023-09-08T19:11:15;11.60;;;6.38;;
39308;SDS011;26019;47.510;19.122;2023-09-08T19:21:19;23.00;;;8.27;;
39308;SDS011;26019;47.510;19.122;2023-09-08T19:31:22;15.60;;;7.75;;
39308;SDS011;26019;47.510;19.122;2023-09-08T19:41:27;15.18;;;7.05;;
39308;SDS011;26019;47.510;19.122;2023-09-08T19:51:29;13.65;;;6.47;;
39308;SDS011;26019;47.510;19.122;2023-09-08T20:01:32;16.98;;;7.80;;
39308;SDS011;26019;47.510;19.122;2023-09-08T20:11:36;14.98;;;7.68;;
39308;SDS011;26019;47.510;19.122;2023-09-08T20:21:42;17.70;;;7.72;;
39308;SDS011;26019;47.510;19.122;2023-09-08T20:31:45;16.40;;;7.18;;
39308;SDS011;26019;47.510;19.122;2023-09-08T20:41:47;12.73;;;6.53;;
39308;SDS011;26019;47.510;19.122;2023-09-08T20:51:50;15.18;;;7.45;;
39308;SDS011;26019;47.510;19.122;2023-09-08T21:01:57;13.00;;;6.72;;
39308;SDS011;26019;47.510;19.122;2023-09-08T21:12:00;13.13;;;7.38;;
39308;SDS011;26019;47.510;19.122;2023-09-08T21:22:02;15.57;;;5.72;;
39308;SDS011;26019;47.510;19.122;2023-09-08T21:32:03;10.55;;;6.40;;
39308;SDS011;26019;47.510;19.122;2023-09-08T21:42:05;14.02;;;6.20;;
39308;SDS011;26019;47.510;19.122;2023-09-08T21:52:10;9.73;;;5.78;;
39308;SDS011;26019;47.510;19.122;2023-09-08T22:02:17;13.73;;;6.32;;
39308;SDS011;26019;47.510;19.122;2023-09-08T22:12:19;10.55;;;6.40;;
39308;SDS011;26019;47.510;19.122;2023-09-08T22:22:21;11.98;;;5.80;;
39308;SDS011;26019;47.510;19.122;2023-09-08T22:32:23;12.80;;;6.85;;
39308;SDS011;26019;47.510;19.122;2023-09-08T22:42:25;10.98;;;6.22;;
39308;SDS011;26019;47.510;19.122;2023-09-08T22:52:26;9.02;;;5.47;;
39308;SDS011;26019;47.510;19.122;2023-09-08T23:02:29;9.35;;;5.55;;
39308;SDS011;26019;47.510;19.122;2023-09-08T23:12:32;10.07;;;5.45;;
39308;SDS011;26019;47.510;19.122;2023-09-08T23:22:34;7.93;;;5.37;;
39308;SDS011;26019;47.510;19.122;2023-09-08T23:32:37;10.13;;;5.43;;
39308;SDS011;26019;47.510;19.122;2023-09-08T23:42:40;11.10;;;5.82;;
39308;SDS011;26019;47.510;19.122;2023-09-08T23:52:41;7.72;;;4.97;;
